Time;durP1;ratioP1;P1;durP2;ratioP2;P2;SDS_P1;SDS_P2;PMS_P1;PMS_P2;Temp;Humidity;BMP_temperature;BMP_pressure;BME280_temperature;BME280_humidity;BME280_pressure;Samples;Min_cycle;Max_cycle;Signal;HPM_P1;HPM_P2
2023/02/22 00:00:18;;;;;;;15.13;7.80;;;;;;;7.91;48.57;99913.41;5047686;28;20017;-39
2023/02/22 00:02:45;;;;;;;17.10;8.18;;;;;;;7.54;48.36;99903.19;5048213;28;20036;-40
2023/02/22 00:05:14;;;;;;;12.00;6.50;;;;;;;7.42;48.15;99915.41;5048515;28;20029;-38
2023/02/22 00:07:40;;;;;;;14.52;7.03;;;;;;;7.43;47.40;99898.44;5047985;28;20108;-37
2023/02/22 00:10:12;;;;;;;12.98;6.13;;;;;;;7.60;47.96;99897.06;5047677;28;20473;-36
2023/02/22 00:12:41;;;;;;;11.45;5.82;;;;;;;7.88;47.59;99914.59;5047755;28;20040;-39
2023/02/22 00:15:07;;;;;;;12.45;5.97;;;;;;;7.77;48.74;99920.53;5048211;28;20032;-38
2023/02/22 00:17:33;;;;;;;12.32;6.05;;;;;;;7.96;47.92;99917.06;5047431;28;20044;-38
2023/02/22 00:19:58;;;;;;;9.60;5.60;;;;;;;7.90;47.42;99888.66;5047476;28;20025;-38
2023/02/22 00:22:24;;;;;;;14.15;5.72;;;;;;;7.70;48.19;99901.13;5047433;28;20041;-40
2023/02/22 00:24:49;;;;;;;13.85;6.20;;;;;;;8.00;48.24;99931.56;5046159;28;20051;-38
2023/02/22 00:27:15;;;;;;;10.95;5.85;;;;;;;7.80;47.94;99901.53;5047050;28;20029;-39
2023/02/22 00:29:45;;;;;;;11.70;5.63;;;;;;;7.85;47.46;99910.53;5044195;28;20027;-39
2023/02/22 00:32:14;;;;;;;14.13;6.35;;;;;;;7.90;48.19;99917.88;5027449;28;20039;-40
2023/02/22 00:34:40;;;;;;;11.38;6.00;;;;;;;7.44;49.47;99902.75;5027513;28;20057;-39
2023/02/22 00:37:05;;;;;;;11.63;5.90;;;;;;;7.28;49.31;99892.53;5027366;28;20528;-39
2023/02/22 00:39:31;;;;;;;11.65;6.30;;;;;;;7.07;49.19;99886.38;5027401;28;20116;-39
2023/02/22 00:41:56;;;;;;;11.60;6.53;;;;;;;7.31;49.93;99913.34;5026973;28;20487;-40
2023/02/22 00:44:22;;;;;;;10.88;6.03;;;;;;;7.34;49.51;99902.34;5027605;28;20069;-39
2023/02/22 00:46:48;;;;;;;10.50;6.47;;;;;;;7.28;49.78;99905.78;5027955;28;20486;-37
2023/02/22 00:49:14;;;;;;;13.05;6.53;;;;;;;6.70;51.08;99901.75;5027087;28;20065;-39
2023/02/22 00:51:40;;;;;;;11.73;6.47;;;;;;;6.75;50.91;99909.91;5026280;28;20132;-38
2023/02/22 00:54:06;;;;;;;12.65;6.30;;;;;;;6.47;52.74;99911.81;5027255;28;20057;-40
2023/02/22 00:56:34;;;;;;;12.70;7.13;;;;;;;6.07;53.15;99908.91;5028173;28;20036;-40
2023/02/22 00:59:00;;;;;;;12.27;6.68;;;;;;;6.40;51.88;99902.00;5031425;28;20029;-39
2023/02/22 01:01:29;;;;;;;14.20;7.10;;;;;;;6.53;53.01;99913.66;5031351;28;20580;-41
2023/02/22 01:03:54;;;;;;;13.85;6.88;;;;;;;6.77;51.62;99902.56;5029790;28;20056;-38
2023/02/22 01:06:21;;;;;;;11.60;7.10;;;;;;;7.07;51.09;99918.19;5031292;28;20064;-41
2023/02/22 01:08:47;;;;;;;12.88;6.78;;;;;;;6.87;51.52;99914.66;5030892;28;20044;-39
2023/02/22 01:11:15;;;;;;;11.82;7.30;;;;;;;7.14;50.61;99924.31;5030876;28;20033;-41
2023/02/22 01:13:41;;;;;;;24.77;7.97;;;;;;;7.00;51.63;99925.28;5031130;28;20033;-41
2023/02/22 01:16:07;;;;;;;14.48;7.57;;;;;;;7.06;51.34;99911.22;5031012;28;20067;-37
2023/02/22 01:18:35;;;;;;;16.95;8.15;;;;;;;7.12;50.98;99918.38;5030955;28;20034;-40
2023/02/22 01:21:04;;;;;;;14.75;7.60;;;;;;;7.03;50.92;99907.16;5030758;28;20037;-38
2023/02/22 01:23:30;;;;;;;17.17;8.32;;;;;;;7.03;51.62;99917.75;5030501;28;20045;-39
2023/02/22 01:25:56;;;;;;;18.17;7.78;;;;;;;6.97;51.77;99910.59;5030930;28;20040;-40
2023/02/22 01:28:22;;;;;;;14.27;7.60;;;;;;;6.90;51.66;99912.41;5030927;28;20126;-41
2023/02/22 01:30:48;;;;;;;20.02;8.80;;;;;;;6.83;51.16;99898.31;5030483;28;20476;-34
2023/02/22 01:33:14;;;;;;;17.90;8.57;;;;;;;6.81;51.71;99901.16;5030479;28;20039;-40
2023/02/22 01:35:41;;;;;;;19.98;9.55;;;;;;;6.64;52.36;99897.22;5030501;28;20053;-40
2023/02/22 01:38:08;;;;;;;21.95;9.73;;;;;;;6.56;52.24;99894.72;5030599;28;20163;-41
2023/02/22 01:40:37;;;;;;;20.53;9.87;;;;;;;6.54;52.36;99875.56;5030586;28;20049;-40
2023/02/22 01:43:04;;;;;;;;;;;;;;;6.89;51.75;99915.28;5031054;28;20466;-40
2023/02/22 01:45:29;;;;;;;18.38;9.07;;;;;;;6.83;52.43;99906.28;5030267;28;19963;-41
2023/02/22 01:48:04;;;;;;;19.83;9.25;;;;;;;6.91;52.19;99907.94;5030263;28;20034;-39
2023/02/22 01:50:36;;;;;;;17.90;8.35;;;;;;;6.94;51.30;99902.22;5030162;28;20098;-40
2023/02/22 01:53:03;;;;;;;21.27;10.00;;;;;;;6.95;51.50;99909.16;5030393;28;20059;-41
2023/02/22 01:55:30;;;;;;;18.25;9.18;;;;;;;6.93;51.62;99906.72;5030027;28;20174;-37
2023/02/22 01:57:56;;;;;;;17.33;8.88;;;;;;;6.87;51.75;99894.25;5029998;28;20514;-39
2023/02/22 02:00:23;;;;;;;18.90;9.20;;;;;;;6.69;52.23;99878.09;5030237;28;20033;-40
2023/02/22 02:02:58;;;;;;;19.83;8.32;;;;;;;6.91;52.58;99902.63;5030049;28;20088;-41
2023/02/22 02:05:30;;;;;;;19.15;9.32;;;;;;;6.27;52.99;99878.06;5030061;28;20037;-37
2023/02/22 02:07:57;;;;;;;18.67;8.68;;;;;;;6.32;53.81;99912.75;5028885;28;20047;-40
2023/02/22 02:10:23;;;;;;;17.35;9.45;;;;;;;6.33;54.08;99903.75;5030285;28;20033;-40
2023/02/22 02:12:50;;;;;;;17.80;9.23;;;;;;;6.25;54.12;99906.56;5029909;28;20025;-38
2023/02/22 02:15:27;;;;;;;22.23;10.23;;;;;;;6.08;54.92;99903.41;5029745;28;20034;-38
2023/02/22 02:17:56;;;;;;;25.00;11.83;;;;;;;6.36;52.82;99886.69;5029866;28;20099;-36
2023/02/22 02:21:09;;;;;;;22.42;11.05;;;;;;;6.46;53.17;99911.00;5030098;28;20116;-37
2023/02/22 02:23:50;;;;;;;22.85;9.98;;;;;;;6.30;53.06;99901.53;5029289;28;20029;-39
2023/02/22 02:26:54;;;;;;;20.92;10.57;;;;;;;6.12;54.08;99909.16;5029775;28;20060;-40
2023/02/22 02:29:44;;;;;;;20.13;9.30;;;;;;;5.95;54.88;99909.44;5029468;28;20033;-41
2023/02/22 02:32:21;;;;;;;17.83;8.55;;;;;;;5.35;55.99;99913.34;5029406;28;20048;-40
2023/02/22 02:34:55;;;;;;;17.00;8.98;;;;;;;4.89;57.37;99916.34;5029654;28;20034;-40
2023/02/22 02:38:16;;;;;;;15.85;7.95;;;;;;;4.63;57.32;99899.13;5029309;28;20080;-38
2023/02/22 02:40:57;;;;;;;13.77;7.75;;;;;;;4.97;57.87;99910.94;5026322;28;20507;-41
2023/02/22 02:43:32;;;;;;;17.05;8.80;;;;;;;5.14;56.77;99917.63;5029029;28;20413;-38
2023/02/22 02:46:08;;;;;;;19.10;8.43;;;;;;;5.50;55.93;99911.47;5029295;28;20034;-37
2023/02/22 02:48:36;;;;;;;18.02;8.85;;;;;;;5.72;55.04;99914.94;5029323;28;20041;-40
2023/02/22 02:51:05;;;;;;;23.50;9.98;;;;;;;5.75;55.25;99911.09;5028793;28;20055;-37
2023/02/22 02:53:37;;;;;;;26.30;11.85;;;;;;;5.79;54.62;99888.53;5029255;28;20038;-41
2023/02/22 02:56:06;;;;;;;31.33;14.75;;;;;;;6.03;53.72;99906.66;5029289;28;20030;-40
2023/02/22 02:58:32;;;;;;;;;;;;;;;5.78;55.47;99924.75;5029532;28;20032;-39
2023/02/22 03:01:02;;;;;;;40.88;16.75;;;;;;;5.72;54.83;99914.09;5028910;28;19912;-37
2023/02/22 03:03:49;;;;;;;41.92;17.30;;;;;;;6.32;53.09;99923.34;5028515;28;20470;-40
2023/02/22 03:06:21;;;;;;;37.42;16.23;;;;;;;6.37;53.35;99926.19;5029122;28;20033;-41
2023/02/22 03:09:14;;;;;;;26.17;12.93;;;;;;;6.33;53.33;99909.06;5028805;28;20037;-38
2023/02/22 03:11:59;;;;;;;20.95;10.50;;;;;;;5.98;53.14;99926.75;5028756;28;20037;-39
2023/02/22 03:14:40;;;;;;;15.38;7.55;;;;;;;6.22;52.73;99938.75;5029007;28;20128;-41
2023/02/22 03:17:35;;;;;;;13.35;6.20;;;;;;;5.72;51.97;99914.09;5029097;28;20043;-40
2023/02/22 03:20:09;;;;;;;17.25;10.07;;;;;;;5.16;55.08;99923.53;5028269;28;20095;-41
2023/02/22 03:23:00;;;;;;;14.23;7.30;;;;;;;5.07;56.52;99924.69;5028917;28;20041;-39
2023/02/22 03:25:42;;;;;;;17.15;8.40;;;;;;;4.91;56.57;99936.28;5028313;28;20029;-40
2023/02/22 03:28:10;;;;;;;17.13;8.27;;;;;;;4.79;57.48;99941.22;5028632;28;20100;-41
2023/02/22 03:30:35;;;;;;;;;;;;;;;5.02;57.13;99949.00;5028578;28;20033;-37
2023/02/22 03:33:27;;;;;;;14.18;7.07;;;;;;;5.11;56.10;99939.16;5028400;28;20611;-39
2023/02/22 03:36:01;;;;;;;13.93;7.13;;;;;;;5.27;55.33;99929.34;5028291;28;20095;-38
2023/02/22 03:38:33;;;;;;;15.98;9.27;;;;;;;5.09;56.92;99949.09;5028372;28;20037;-40
2023/02/22 03:41:00;;;;;;;14.63;9.02;;;;;;;4.72;57.27;99950.88;5028082;28;20561;-40
2023/02/22 03:43:47;;;;;;;12.23;7.87;;;;;;;4.41;59.12;99949.25;5028248;28;20061;-40
2023/02/22 03:46:14;;;;;;;15.55;6.82;;;;;;;4.57;57.83;99958.78;5028352;28;20091;-39
2023/02/22 03:48:53;;;;;;;12.67;6.73;;;;;;;4.48;59.00;99949.34;5028308;28;20029;-36
2023/02/22 03:51:19;;;;;;;14.13;7.05;;;;;;;4.58;58.06;99951.72;5027801;28;20030;-38
2023/02/22 03:53:46;;;;;;;10.40;6.78;;;;;;;4.83;57.99;99947.75;5028109;28;20029;-41
2023/02/22 03:56:18;;;;;;;18.63;7.93;;;;;;;5.27;55.68;99953.13;5028228;28;20552;-39
2023/02/22 03:58:48;;;;;;;12.23;6.25;;;;;;;5.27;55.48;99963.72;5028117;28;20025;-38
2023/02/22 04:01:15;;;;;;;22.23;14.70;;;;;;;5.17;56.00;99956.06;5027691;28;20383;-40
2023/02/22 04:03:41;;;;;;;17.50;9.20;;;;;;;5.10;55.84;99945.44;5028072;28;20033;-38
2023/02/22 04:06:07;;;;;;;13.80;7.57;;;;;;;5.48;55.23;99932.00;5027789;28;20033;-38
2023/02/22 04:08:32;;;;;;;21.20;10.68;;;;;;;5.03;56.36;99947.19;5028007;28;20030;-41
2023/02/22 04:11:00;;;;;;;35.30;16.98;;;;;;;5.02;57.41;99946.34;5027737;28;20032;-37
2023/02/22 04:13:26;;;;;;;50.30;21.80;;;;;;;5.00;57.48;99944.91;5027737;28;20037;-37
2023/02/22 04:15:52;;;;;;;53.67;21.55;;;;;;;5.08;56.01;99939.50;5027744;28;20041;-39
2023/02/22 04:18:18;;;;;;;50.75;22.17;;;;;;;5.50;54.76;99953.81;5027855;28;20075;-41
2023/02/22 04:20:43;;;;;;;62.33;26.48;;;;;;;5.41;55.10;99946.97;5028980;28;20064;-39
2023/02/22 04:23:09;;;;;;;74.28;29.73;;;;;;;5.06;56.51;99930.94;5047786;28;20032;-33
2023/02/22 04:25:34;;;;;;;60.90;25.33;;;;;;;5.40;56.25;99948.00;5047461;28;20029;-41
2023/02/22 04:28:00;;;;;;;42.05;20.23;;;;;;;5.42;55.42;99940.69;5047326;28;20025;-37
2023/02/22 04:30:27;;;;;;;39.63;21.15;;;;;;;5.32;55.89;99934.91;5048159;28;20035;-36
2023/02/22 04:32:52;;;;;;;74.47;39.58;;;;;;;5.27;56.14;99932.00;5051662;28;20047;-37
2023/02/22 04:35:17;;;;;;;66.63;36.67;;;;;;;5.34;56.05;99922.31;5051230;28;20028;-39
2023/02/22 04:37:43;;;;;;;113.32;50.95;;;;;;;5.16;57.25;99944.69;5051635;28;20115;-37
2023/02/22 04:40:10;;;;;;;35.90;17.67;;;;;;;4.62;59.08;99963.56;5051621;28;20417;-41
2023/02/22 04:42:36;;;;;;;29.25;14.95;;;;;;;4.61;58.95;99961.91;5051003;28;20053;-40
2023/02/22 04:45:03;;;;;;;18.92;10.25;;;;;;;4.49;59.86;99971.28;5051370;28;20043;-37
2023/02/22 04:47:29;;;;;;;19.70;9.27;;;;;;;4.41;60.01;99980.94;5051088;28;20487;-40
2023/02/22 04:49:54;;;;;;;21.38;9.40;;;;;;;4.32;60.94;99962.72;5051057;28;20025;-38
2023/02/22 04:52:20;;;;;;;17.80;9.40;;;;;;;3.78;62.25;99958.38;5050591;28;20041;-38
2023/02/22 04:54:45;;;;;;;22.55;10.30;;;;;;;4.07;61.64;99972.69;5050408;28;20071;-35
2023/02/22 04:57:11;;;;;;;15.18;8.35;;;;;;;4.32;60.94;99945.03;5051282;28;20033;-35
2023/02/22 04:59:36;;;;;;;13.23;7.75;;;;;;;4.14;61.69;99974.41;5050846;28;20021;-40
2023/02/22 05:02:02;;;;;;;164.05;52.30;;;;;;;4.38;60.98;99954.88;5050978;28;20037;-38
2023/02/22 05:04:28;;;;;;;24.92;12.77;;;;;;;4.92;60.04;99945.00;5050976;28;20049;-37
2023/02/22 05:06:54;;;;;;;20.63;11.38;;;;;;;5.20;58.93;99947.78;5049783;28;20029;-41
2023/02/22 05:09:22;;;;;;;26.50;13.10;;;;;;;5.15;58.84;99929.00;5050871;28;20610;-40
2023/02/22 05:11:48;;;;;;;;;;;;;;;5.38;58.80;99963.25;5051490;28;20098;-36
2023/02/22 05:14:13;;;;;;;41.80;21.02;;;;;;;5.36;57.97;99944.09;5050806;28;19917;-35
2023/02/22 05:16:39;;;;;;;29.00;16.85;;;;;;;5.63;58.56;99968.97;5050734;28;20075;-38
2023/02/22 05:19:04;;;;;;;31.83;15.75;;;;;;;5.81;56.72;99965.88;5050949;28;20052;-40
2023/02/22 05:21:30;;;;;;;273.27;122.50;;;;;;;5.81;57.04;99976.47;5050761;28;20929;-40
2023/02/22 05:23:56;;;;;;;154.73;66.03;;;;;;;5.63;57.00;99948.63;5050796;28;20033;-40
2023/02/22 05:26:21;;;;;;;473.15;164.73;;;;;;;5.76;57.91;99979.69;5051091;28;20032;-38
2023/02/22 05:28:47;;;;;;;182.13;61.30;;;;;;;5.69;57.48;99967.41;5050571;28;20033;-38
2023/02/22 05:31:12;;;;;;;189.50;98.55;;;;;;;5.91;56.56;99974.34;5050589;28;20143;-36
2023/02/22 05:33:40;;;;;;;92.60;39.58;;;;;;;5.72;57.96;99962.56;5050225;28;20091;-38
2023/02/22 05:36:06;;;;;;;41.38;15.07;;;;;;;5.70;59.66;99979.63;5050821;28;20017;-41
2023/02/22 05:38:33;;;;;;;26.27;12.43;;;;;;;5.51;59.35;99971.28;5050596;28;20064;-37
2023/02/22 05:40:59;;;;;;;23.55;10.70;;;;;;;5.95;58.26;99988.84;5050410;28;20493;-39
2023/02/22 05:43:24;;;;;;;27.67;11.27;;;;;;;5.89;58.09;99992.22;5050060;28;20029;-39
2023/02/22 05:45:52;;;;;;;39.05;17.50;;;;;;;6.23;65.95;99982.75;5050264;28;20029;-37
2023/02/22 05:48:17;;;;;;;46.95;23.63;;;;;;;10.56;54.65;99973.44;5050197;28;20025;-41
2023/02/22 05:50:43;;;;;;;38.53;20.45;;;;;;;12.81;41.78;100003.31;5050539;28;20425;-38
2023/02/22 05:53:09;;;;;;;42.78;19.48;;;;;;;13.46;47.16;99990.69;5050522;28;20028;-38
2023/02/22 05:55:34;;;;;;;40.35;21.05;;;;;;;13.89;45.33;100005.38;5050134;28;20477;-36
2023/02/22 05:58:00;;;;;;;43.22;21.42;;;;;;;14.94;42.79;99994.09;5050411;28;20477;-36
2023/02/22 06:00:29;;;;;;;39.55;20.13;;;;;;;16.55;43.37;100018.50;5050131;28;20040;-37
2023/02/22 06:03:00;;;;;;;39.50;19.52;;;;;;;15.59;39.37;100027.31;5049934;28;20039;-37
2023/02/22 06:05:26;;;;;;;40.35;21.88;;;;;;;14.54;43.03;100013.91;5049700;28;20051;-40
2023/02/22 06:07:52;;;;;;;58.53;27.67;;;;;;;18.13;34.13;100044.44;5050044;28;20028;-39
2023/02/22 06:10:19;;;;;;;144.95;55.20;;;;;;;19.41;33.88;100038.78;5048455;28;20033;-36
2023/02/22 06:12:45;;;;;;;91.32;35.28;;;;;;;19.40;31.01;100030.94;5050247;28;20036;-39
2023/02/22 06:15:10;;;;;;;45.70;22.63;;;;;;;14.02;36.87;100037.25;5049850;28;20029;-38
2023/02/22 06:17:36;;;;;;;41.58;21.48;;;;;;;11.11;44.21;100018.81;5047467;28;20039;-43
2023/02/22 06:20:02;;;;;;;73.97;31.60;;;;;;;9.82;47.90;100042.50;5030830;28;20097;-41
2023/02/22 06:22:27;;;;;;;36.08;22.15;;;;;;;8.79;51.13;100035.34;5038655;28;20127;-41
2023/02/22 06:24:53;;;;;;;48.42;25.88;;;;;;;8.63;51.73;100020.63;5029781;28;20041;-43
2023/02/22 06:27:18;;;;;;;87.38;50.72;;;;;;;8.24;51.76;100014.31;5029292;28;20029;-42
2023/02/22 06:29:45;;;;;;;94.40;62.75;;;;;;;8.51;50.79;100022.28;5031536;28;20033;-40
2023/02/22 06:32:12;;;;;;;110.07;51.15;;;;;;;8.13;52.29;100033.50;5038103;28;20033;-42
2023/02/22 06:34:37;;;;;;;176.07;84.03;;;;;;;8.04;53.10;100022.25;5029343;28;20464;-41
2023/02/22 06:37:02;;;;;;;25.38;13.57;;;;;;;8.09;52.90;100032.28;5029439;28;20025;-39
2023/02/22 06:39:28;;;;;;;113.70;48.20;;;;;;;8.02;52.59;100038.38;5029072;28;20374;-41
2023/02/22 06:41:55;;;;;;;66.75;32.97;;;;;;;7.85;53.00;100042.47;5029567;28;20100;-40
2023/02/22 06:44:20;;;;;;;53.08;27.15;;;;;;;7.84;52.98;100030.19;5028886;28;20025;-40
2023/02/22 06:46:50;;;;;;;30.83;16.95;;;;;;;7.62;53.65;100035.69;5029178;28;20060;-41
2023/02/22 06:49:17;;;;;;;30.38;17.65;;;;;;;7.79;54.35;100044.09;5028808;28;20037;-38
2023/02/22 06:51:42;;;;;;;32.35;19.15;;;;;;;7.95;53.31;100031.47;5029136;28;20027;-39
2023/02/22 06:54:08;;;;;;;38.20;19.40;;;;;;;7.96;52.36;100025.94;5028584;28;20033;-40
2023/02/22 06:56:34;;;;;;;30.65;18.33;;;;;;;8.11;52.61;100031.06;5029075;28;20033;-40
2023/02/22 06:59:00;;;;;;;41.55;25.27;;;;;;;8.44;51.75;100038.25;5028476;28;20029;-38
2023/02/22 07:01:26;;;;;;;37.85;19.05;;;;;;;8.41;52.50;100047.44;5028702;28;20032;-39
2023/02/22 07:03:52;;;;;;;37.42;21.05;;;;;;;8.36;51.99;100028.59;5028900;28;20022;-43
2023/02/22 07:06:18;;;;;;;35.05;20.02;;;;;;;8.44;52.48;100030.28;5028731;28;20145;-41
2023/02/22 07:08:43;;;;;;;40.90;24.75;;;;;;;8.49;52.29;100049.06;5028907;28;20547;-41
2023/02/22 07:11:09;;;;;;;37.88;19.58;;;;;;;8.61;53.07;100051.94;5028562;28;20450;-40
2023/02/22 07:13:36;;;;;;;40.08;20.67;;;;;;;8.64;51.56;100016.94;5028574;28;20083;-37
2023/02/22 07:16:02;;;;;;;38.38;19.63;;;;;;;8.76;51.08;100027.75;5033902;28;20412;-39
2023/02/22 07:18:27;;;;;;;29.00;14.98;;;;;;;9.33;49.97;100057.28;5043558;28;20033;-39
2023/02/22 07:20:53;;;;;;;20.25;12.55;;;;;;;9.63;48.40;100053.03;5040464;28;20036;-40
2023/02/22 07:23:21;;;;;;;23.55;12.98;;;;;;;9.40;49.10;100016.31;5028175;28;20088;-35
2023/02/22 07:25:47;;;;;;;24.33;14.60;;;;;;;10.00;47.84;100034.59;5028572;28;20033;-39
2023/02/22 07:28:12;;;;;;;19.45;12.05;;;;;;;10.14;47.20;100018.50;5028253;28;20025;-40
2023/02/22 07:30:38;;;;;;;19.58;11.80;;;;;;;10.47;45.92;100018.25;5028498;28;20099;-39
2023/02/22 07:33:06;;;;;;;22.77;12.70;;;;;;;10.60;46.78;100030.63;5028372;28;20038;-37
2023/02/22 07:35:36;;;;;;;20.88;11.50;;;;;;;10.65;46.91;100033.47;5028258;28;20494;-42
2023/02/22 07:38:04;;;;;;;21.80;12.70;;;;;;;10.68;46.81;100027.69;5027058;28;20037;-40
2023/02/22 07:40:30;;;;;;;20.88;11.75;;;;;;;10.89;46.45;100020.28;5027995;28;20037;-40
2023/02/22 07:43:04;;;;;;;23.73;12.10;;;;;;;11.32;45.34;100032.72;5028082;28;20152;-40
2023/02/22 07:45:34;;;;;;;19.38;11.57;;;;;;;11.53;44.83;100024.25;5028090;28;20454;-41
2023/02/22 07:48:02;;;;;;;16.35;8.88;;;;;;;11.77;43.40;100000.28;5027931;28;20030;-41
2023/02/22 07:50:30;;;;;;;19.55;9.85;;;;;;;12.04;43.31;100019.44;5028005;28;20044;-40
2023/02/22 07:53:00;;;;;;;17.77;10.27;;;;;;;12.14;43.66;100014.34;5028099;28;20087;-38
2023/02/22 07:55:27;;;;;;;19.23;11.77;;;;;;;12.50;43.29;100004.47;5030486;28;20106;-41
2023/02/22 07:58:01;;;;;;;19.17;7.45;;;;;;;12.85;42.18;100027.72;5036729;28;20482;-38
2023/02/22 08:00:36;;;;;;;54.13;22.83;;;;;;;13.14;41.12;100009.88;5028096;28;20037;-41
2023/02/22 08:03:06;;;;;;;26.40;11.85;;;;;;;13.35;40.04;100007.63;5027898;28;20037;-38
2023/02/22 08:05:33;;;;;;;20.38;12.00;;;;;;;13.54;40.00;100025.13;5027444;28;20033;-38
2023/02/22 08:07:59;;;;;;;20.83;11.55;;;;;;;13.83;40.21;100011.69;5027813;28;20624;-40
2023/02/22 08:10:30;;;;;;;17.92;10.15;;;;;;;14.15;38.37;100025.38;5027497;28;20037;-39
2023/02/22 08:12:55;;;;;;;16.63;7.55;;;;;;;14.36;38.24;100012.31;5030009;28;20021;-37
2023/02/22 08:15:24;;;;;;;12.15;6.10;;;;;;;14.70;37.95;100010.41;5037806;28;20425;-41
2023/02/22 08:17:52;;;;;;;14.85;7.75;;;;;;;15.04;36.80;100015.72;5027786;28;20105;-39
2023/02/22 08:20:18;;;;;;;12.65;5.55;;;;;;;15.01;35.80;100005.44;5032674;28;20068;-38
2023/02/22 08:22:44;;;;;;;12.95;6.22;;;;;;;15.10;36.59;100008.50;5043777;28;20032;-40
2023/02/22 08:25:10;;;;;;;9.73;5.38;;;;;;;15.26;35.96;99981.59;5047666;28;20033;-41
2023/02/22 08:27:35;;;;;;;12.10;5.85;;;;;;;15.50;35.52;100013.53;5047135;28;20025;-40
2023/02/22 08:30:01;;;;;;;10.23;5.07;;;;;;;15.91;35.15;100008.59;5046965;28;20032;-38
2023/02/22 08:32:26;;;;;;;7.90;5.05;;;;;;;15.91;34.38;99987.06;5047558;28;20044;-40
2023/02/22 08:34:52;;;;;;;9.45;5.07;;;;;;;15.99;34.42;99983.91;5047219;28;20093;-39
2023/02/22 08:37:18;;;;;;;9.68;4.45;;;;;;;16.18;34.51;99970.06;5047083;28;20394;-38
2023/02/22 08:39:44;;;;;;;12.30;4.10;;;;;;;16.59;33.16;99992.69;5047215;28;20021;-40
2023/02/22 08:42:10;;;;;;;8.65;4.63;;;;;;;16.54;33.57;99973.00;5047118;28;20550;-41
2023/02/22 08:44:36;;;;;;;12.80;7.88;;;;;;;17.02;34.46;99995.34;5047288;28;20025;-39
2023/02/22 08:47:02;;;;;;;11.70;5.03;;;;;;;16.99;33.58;99990.47;5047237;28;20032;-36
2023/02/22 08:49:27;;;;;;;9.13;5.18;;;;;;;17.12;33.83;99984.63;5045321;28;20037;-39
2023/02/22 08:51:53;;;;;;;8.68;4.57;;;;;;;17.39;33.15;99989.00;5047253;28;20167;-39
2023/02/22 08:54:18;;;;;;;9.00;4.32;;;;;;;17.49;33.97;99994.44;5047581;28;20052;-35
2023/02/22 08:56:43;;;;;;;9.32;4.72;;;;;;;17.53;32.75;99998.22;5047173;28;20037;-39
2023/02/22 08:59:09;;;;;;;9.27;4.45;;;;;;;17.74;33.70;99990.16;5047083;28;20021;-38
2023/02/22 09:01:35;;;;;;;10.70;6.28;;;;;;;18.28;32.73;99976.94;5046814;28;20032;-41
2023/02/22 09:04:01;;;;;;;8.23;3.97;;;;;;;18.27;31.66;99978.03;5046760;28;20055;-37
2023/02/22 09:06:27;;;;;;;7.85;4.28;;;;;;;18.32;32.76;99968.31;5047210;28;20036;-39
2023/02/22 09:08:52;;;;;;;9.80;4.38;;;;;;;18.73;32.72;99984.41;5047015;28;20025;-41
2023/02/22 09:11:17;;;;;;;7.50;3.60;;;;;;;18.93;31.08;99967.34;5040522;28;20036;-39
2023/02/22 09:13:45;;;;;;;7.00;3.67;;;;;;;19.09;30.47;99984.31;5031857;28;20462;-40
2023/02/22 09:16:11;;;;;;;;;;;;;;;19.17;31.01;99972.91;5027705;28;20030;-40
2023/02/22 09:18:36;;;;;;;6.75;2.35;;;;;;;19.47;30.01;99950.28;5030434;28;19924;-39
2023/02/22 09:21:03;;;;;;;6.60;2.78;;;;;;;19.30;29.39;99977.69;5030929;28;20477;-40
2023/02/22 09:23:29;;;;;;;4.95;1.90;;;;;;;19.42;28.25;99971.97;5038937;28;20025;-37
2023/02/22 09:25:55;;;;;;;7.50;2.40;;;;;;;19.49;28.64;99975.16;5033589;28;20417;-39
2023/02/22 09:28:20;;;;;;;6.30;2.42;;;;;;;19.61;28.64;99972.91;5029130;28;20025;-37
2023/02/22 09:30:46;;;;;;;7.05;2.70;;;;;;;19.68;28.37;99962.59;5030437;28;20798;-39
2023/02/22 09:33:15;;;;;;;6.43;2.70;;;;;;;20.09;28.19;99966.09;5030398;28;20040;-38
2023/02/22 09:35:45;;;;;;;6.07;2.00;;;;;;;20.42;26.88;99959.78;5030680;28;20030;-41
2023/02/22 09:38:11;;;;;;;7.53;2.58;;;;;;;20.51;28.24;99941.00;5030564;28;20704;-39
2023/02/22 09:40:48;;;;;;;4.03;1.92;;;;;;;20.55;26.45;99952.88;5030242;28;20060;-36
2023/02/22 09:43:32;;;;;;;4.28;1.90;;;;;;;20.69;27.52;99953.03;5030116;28;20758;-36
2023/02/22 09:46:01;;;;;;;4.65;2.00;;;;;;;20.80;26.22;99951.00;5030176;28;20033;-38
2023/02/22 09:48:30;;;;;;;4.80;2.40;;;;;;;20.87;27.37;99932.50;5030384;28;20030;-39
2023/02/22 09:51:01;;;;;;;5.78;1.75;;;;;;;20.56;26.15;99938.25;5030232;28;20625;-35
2023/02/22 09:53:40;;;;;;;3.17;1.42;;;;;;;21.10;25.99;99944.38;5030272;28;20579;-37
2023/02/22 09:56:17;;;;;;;4.60;1.92;;;;;;;21.37;25.97;99941.03;5030362;28;20068;-38
2023/02/22 09:58:46;;;;;;;5.80;1.60;;;;;;;21.65;25.52;99952.03;5030381;28;20033;-40
2023/02/22 10:01:37;;;;;;;3.03;1.30;;;;;;;21.71;24.95;99942.69;5030108;28;20034;-34
2023/02/22 10:04:23;;;;;;;6.03;1.75;;;;;;;21.99;24.63;99937.38;5029531;28;20044;-38
2023/02/22 10:07:04;;;;;;;3.80;1.10;;;;;;;22.07;24.54;99921.19;5029809;28;20040;-40
2023/02/22 10:09:36;;;;;;;4.28;1.50;;;;;;;21.95;24.83;99934.44;5040678;28;20028;-37
2023/02/22 10:12:11;;;;;;;4.30;1.40;;;;;;;22.13;24.25;99934.66;5030058;28;20132;-37
2023/02/22 10:15:05;;;;;;;4.90;1.27;;;;;;;22.26;25.54;99931.22;5029611;28;20045;-40
2023/02/22 10:17:45;;;;;;;11.07;1.27;;;;;;;22.49;24.28;99917.72;5028201;28;20586;-36
2023/02/22 10:20:27;;;;;;;4.72;1.20;;;;;;;22.45;23.41;99915.63;5030104;28;20029;-39
2023/02/22 10:23:30;;;;;;;3.45;1.40;;;;;;;22.52;23.23;99914.44;5032258;28;20032;-40
2023/02/22 10:26:11;;;;;;;2.50;1.17;;;;;;;22.67;22.98;99908.66;5041610;28;20028;-40
2023/02/22 10:28:48;;;;;;;2.38;1.10;;;;;;;22.69;21.96;99895.56;5048839;28;20029;-41
2023/02/22 10:31:22;;;;;;;2.15;0.90;;;;;;;23.00;22.41;99903.06;5048873;28;20542;-36
2023/02/22 10:33:55;;;;;;;1.25;0.90;;;;;;;23.13;21.70;99896.84;5049492;28;20060;-38
2023/02/22 10:36:23;;;;;;;2.58;0.90;;;;;;;23.00;21.88;99898.44;5049367;28;20024;-38
2023/02/22 10:39:29;;;;;;;2.53;0.98;;;;;;;22.79;22.50;99895.34;5049285;28;20041;-38
2023/02/22 10:42:04;;;;;;;3.53;1.20;;;;;;;23.39;22.71;99882.63;5042537;28;20045;-41
2023/02/22 10:44:34;;;;;;;4.25;1.15;;;;;;;23.90;21.73;99889.53;5041122;28;20455;-39
2023/02/22 10:47:01;;;;;;;4.50;2.33;;;;;;;24.20;20.64;99868.06;5047803;28;20039;-38
2023/02/22 10:49:37;;;;;;;2.15;1.15;;;;;;;24.03;20.89;99877.75;5048884;28;20112;-39
2023/02/22 10:52:13;;;;;;;1.50;0.90;;;;;;;23.52;22.01;99879.06;5049145;28;20045;-38
2023/02/22 10:54:44;;;;;;;3.17;1.30;;;;;;;23.73;21.69;99865.72;5048864;28;20039;-41
2023/02/22 10:57:11;;;;;;;4.15;1.30;;;;;;;24.25;21.50;99865.19;5049030;28;20816;-39
2023/02/22 10:59:38;;;;;;;5.28;2.40;;;;;;;24.51;21.14;99861.78;5048749;28;20029;-39
2023/02/22 11:02:27;;;;;;;4.25;1.90;;;;;;;25.12;20.70;99861.84;5045998;28;20039;-39
2023/02/22 11:04:56;;;;;;;7.35;4.72;;;;;;;25.25;20.42;99848.06;5035858;28;20446;-40
2023/02/22 11:07:29;;;;;;;2.92;1.60;;;;;;;25.26;20.08;99857.06;5040396;28;20485;-41
2023/02/22 11:10:29;;;;;;;2.33;1.17;;;;;;;25.27;20.10;99831.34;5028796;28;20052;-39
2023/02/22 11:12:55;;;;;;;5.65;1.10;;;;;;;25.56;20.45;99846.22;5032557;28;20041;-37
2023/02/22 11:15:23;;;;;;;2.05;1.30;;;;;;;25.26;19.77;99857.84;5035221;28;20037;-39
2023/02/22 11:17:54;;;;;;;5.50;1.50;;;;;;;24.07;20.38;99853.44;5028729;28;20033;-40
2023/02/22 11:20:25;;;;;;;2.08;1.10;;;;;;;23.96;20.66;99833.81;5028567;28;20069;-40
2023/02/22 11:22:54;;;;;;;2.45;1.10;;;;;;;24.33;20.09;99833.63;5028625;28;20071;-41
2023/02/22 11:25:25;;;;;;;4.07;1.20;;;;;;;24.88;20.09;99848.66;5033840;28;20112;-41
2023/02/22 11:27:52;;;;;;;4.38;1.40;;;;;;;25.49;19.66;99846.72;5048302;28;20497;-38
2023/02/22 11:30:23;;;;;;;2.67;1.23;;;;;;;25.23;19.53;99849.50;5030732;28;20037;-41
2023/02/22 11:32:56;;;;;;;3.42;1.17;;;;;;;25.07;19.73;99835.53;5028738;28;20091;-35
2023/02/22 11:35:27;;;;;;;2.72;1.15;;;;;;;25.53;20.43;99838.69;5028260;28;20464;-39
2023/02/22 11:38:12;;;;;;;6.18;1.70;;;;;;;25.78;19.07;99837.81;5028174;28;20072;-41
2023/02/22 11:40:39;;;;;;;3.15;1.42;;;;;;;26.24;19.92;99821.75;5029353;28;20580;-39